sensor_id;sensor_type;location;lat;lon;timestamp;pressure;altitude;pressure_sealevel;temperature;humidity
40384;BME280;26097;42.366;23.818;2023-06-10T00:02:40;93666.75;;;13.45;100.00
40384;BME280;26097;42.366;23.818;2023-06-10T00:05:41;93662.56;;;13.62;100.00
40384;BME280;26097;42.366;23.818;2023-06-10T00:08:41;93666.53;;;13.66;100.00
40384;BME280;26097;42.366;23.818;2023-06-10T00:11:42;93666.22;;;13.69;100.00
40384;BME280;26097;42.366;23.818;2023-06-10T00:14:43;93661.28;;;13.66;100.00
40384;BME280;26097;42.366;23.818;2023-06-10T00:17:43;93665.84;;;13.64;100.00
40384;BME280;26097;42.366;23.818;2023-06-10T00:20:44;93665.25;;;13.70;100.00
40384;BME280;26097;42.366;23.818;2023-06-10T00:23:44;93659.50;;;13.66;100.00
40384;BME280;26097;42.366;23.818;2023-06-10T00:26:45;93666.91;;;13.71;100.00
40384;BME280;26097;42.366;23.818;2023-06-10T00:29:45;93659.72;;;13.73;100.00
40384;BME280;26097;42.366;23.818;2023-06-10T00:32:49;93658.47;;;13.77;100.00
40384;BME280;26097;42.366;23.818;2023-06-10T00:35:49;93656.84;;;13.76;100.00
40384;BME280;26097;42.366;23.818;2023-06-10T00:38:50;93655.03;;;13.77;100.00
40384;BME280;26097;42.366;23.818;2023-06-10T00:41:50;93662.44;;;13.81;100.00
40384;BME280;26097;42.366;23.818;2023-06-10T00:44:51;93672.25;;;13.79;100.00
40384;BME280;26097;42.366;23.818;2023-06-10T00:47:51;93665.75;;;13.83;100.00
40384;BME280;26097;42.366;23.818;2023-06-10T00:50:52;93664.91;;;13.83;100.00
40384;BME280;26097;42.366;23.818;2023-06-10T00:53:53;93657.50;;;13.78;100.00
40384;BME280;26097;42.366;23.818;2023-06-10T00:56:54;93653.91;;;13.79;100.00
40384;BME280;26097;42.366;23.818;2023-06-10T00:59:55;93657.22;;;13.81;100.00
40384;BME280;26097;42.366;23.818;2023-06-10T01:02:55;93659.81;;;13.81;100.00
40384;BME280;26097;42.366;23.818;2023-06-10T01:12:45;93676.22;;;13.83;100.00
40384;BME280;26097;42.366;23.818;2023-06-10T01:15:49;93676.50;;;13.80;100.00
40384;BME280;26097;42.366;23.818;2023-06-10T01:18:50;93665.75;;;13.83;100.00
40384;BME280;26097;42.366;23.818;2023-06-10T01:21:51;93665.44;;;13.87;100.00
40384;BME280;26097;42.366;23.818;2023-06-10T01:24:52;93665.81;;;13.92;100.00
40384;BME280;26097;42.366;23.818;2023-06-10T01:31:16;93661.72;;;14.07;100.00
40384;BME280;26097;42.366;23.818;2023-06-10T01:34:18;93662.03;;;14.04;100.00
40384;BME280;26097;42.366;23.818;2023-06-10T01:37:19;93657.09;;;14.01;100.00
40384;BME280;26097;42.366;23.818;2023-06-10T01:40:23;93663.31;;;14.00;100.00
40384;BME280;26097;42.366;23.818;2023-06-10T01:43:26;93672.94;;;13.99;100.00
40384;BME280;26097;42.366;23.818;2023-06-10T01:46:26;93674.75;;;13.99;100.00
40384;BME280;26097;42.366;23.818;2023-06-10T01:49:26;93676.09;;;14.03;100.00
40384;BME280;26097;42.366;23.818;2023-06-10T01:52:28;93681.34;;;14.03;100.00
40384;BME280;26097;42.366;23.818;2023-06-10T01:55:29;93675.25;;;14.03;100.00
40384;BME280;26097;42.366;23.818;2023-06-10T01:58:29;93675.44;;;14.01;100.00
40384;BME280;26097;42.366;23.818;2023-06-10T02:01:30;93675.44;;;14.01;100.00
40384;BME280;26097;42.366;23.818;2023-06-10T02:04:30;93674.16;;;14.05;100.00
40384;BME280;26097;42.366;23.818;2023-06-10T02:07:30;93670.03;;;14.03;100.00
40384;BME280;26097;42.366;23.818;2023-06-10T02:10:31;93683.13;;;14.03;100.00
40384;BME280;26097;42.366;23.818;2023-06-10T02:13:31;93680.75;;;14.09;100.00
40384;BME280;26097;42.366;23.818;2023-06-10T02:16:32;93691.41;;;14.26;100.00
40384;BME280;26097;42.366;23.818;2023-06-10T02:19:32;93694.84;;;14.26;100.00
40384;BME280;26097;42.366;23.818;2023-06-10T02:22:37;93684.19;;;14.28;100.00
40384;BME280;26097;42.366;23.818;2023-06-10T02:25:37;93684.50;;;14.25;100.00
40384;BME280;26097;42.366;23.818;2023-06-10T02:28:38;93683.97;;;14.21;100.00
40384;BME280;26097;42.366;23.818;2023-06-10T02:31:38;93675.59;;;14.18;100.00
40384;BME280;26097;42.366;23.818;2023-06-10T02:34:39;93672.44;;;14.14;100.00
40384;BME280;26097;42.366;23.818;2023-06-10T02:37:40;93676.47;;;14.08;100.00
40384;BME280;26097;42.366;23.818;2023-06-10T02:40:41;93681.41;;;14.11;100.00
40384;BME280;26097;42.366;23.818;2023-06-10T02:43:41;93678.50;;;14.14;100.00
40384;BME280;26097;42.366;23.818;2023-06-10T02:46:41;93681.41;;;14.11;100.00
40384;BME280;26097;42.366;23.818;2023-06-10T02:49:42;93689.44;;;14.10;100.00
40384;BME280;26097;42.366;23.818;2023-06-10T02:52:43;93672.88;;;14.09;100.00
40384;BME280;26097;42.366;23.818;2023-06-10T02:55:43;93684.34;;;14.08;100.00
40384;BME280;26097;42.366;23.818;2023-06-10T02:58:44;93679.94;;;14.09;100.00
40384;BME280;26097;42.366;23.818;2023-06-10T03:01:46;93687.31;;;14.13;100.00
40384;BME280;26097;42.366;23.818;2023-06-10T03:04:47;93684.34;;;14.08;100.00
40384;BME280;26097;42.366;23.818;2023-06-10T03:07:48;93681.03;;;14.06;100.00
40384;BME280;26097;42.366;23.818;2023-06-10T03:10:48;93670.41;;;14.08;100.00
40384;BME280;26097;42.366;23.818;2023-06-10T03:13:48;93674.63;;;14.19;100.00
40384;BME280;26097;42.366;23.818;2023-06-10T03:16:49;93674.94;;;14.16;100.00
40384;BME280;26097;42.366;23.818;2023-06-10T03:19:50;93674.63;;;14.19;100.00
40384;BME280;26097;42.366;23.818;2023-06-10T03:22:50;93675.97;;;14.23;100.00
40384;BME280;26097;42.366;23.818;2023-06-10T03:25:51;93668.63;;;14.26;100.00
40384;BME280;26097;42.366;23.818;2023-06-10T03:28:51;93670.13;;;14.29;100.00
40384;BME280;26097;42.366;23.818;2023-06-10T03:31:52;93672.06;;;14.27;100.00
40384;BME280;26097;42.366;23.818;2023-06-10T03:34:52;93678.66;;;14.31;100.00
40384;BME280;26097;42.366;23.818;2023-06-10T03:37:57;93669.06;;;14.40;100.00
40384;BME280;26097;42.366;23.818;2023-06-10T03:40:57;93668.69;;;14.53;100.00
40384;BME280;26097;42.366;23.818;2023-06-10T03:43:58;93672.28;;;14.70;100.00
40384;BME280;26097;42.366;23.818;2023-06-10T03:46:58;93666.31;;;14.78;100.00
40384;BME280;26097;42.366;23.818;2023-06-10T03:50:00;93666.03;;;14.89;100.00
40384;BME280;26097;42.366;23.818;2023-06-10T03:53:01;93666.47;;;15.03;100.00
40384;BME280;26097;42.366;23.818;2023-06-10T03:56:01;93676.72;;;15.14;100.00
40384;BME280;26097;42.366;23.818;2023-06-10T03:59:01;93663.06;;;15.10;100.00
40384;BME280;26097;42.366;23.818;2023-06-10T04:02:02;93667.56;;;15.18;100.00
40384;BME280;26097;42.366;23.818;2023-06-10T04:05:05;93665.31;;;15.32;100.00
40384;BME280;26097;42.366;23.818;2023-06-10T04:08:06;93666.34;;;15.39;100.00
40384;BME280;26097;42.366;23.818;2023-06-10T04:11:07;93657.19;;;15.43;100.00
40384;BME280;26097;42.366;23.818;2023-06-10T04:14:08;93666.44;;;15.55;100.00
40384;BME280;26097;42.366;23.818;2023-06-10T04:17:08;93668.44;;;15.70;100.00
40384;BME280;26097;42.366;23.818;2023-06-10T04:20:09;93670.09;;;15.71;100.00
40384;BME280;26097;42.366;23.818;2023-06-10T04:23:09;93674.09;;;15.83;100.00
40384;BME280;26097;42.366;23.818;2023-06-10T04:26:10;93669.84;;;15.91;100.00
40384;BME280;26097;42.366;23.818;2023-06-10T04:29:12;93677.13;;;16.05;100.00
40384;BME280;26097;42.366;23.818;2023-06-10T04:32:12;93671.91;;;16.22;100.00
40384;BME280;26097;42.366;23.818;2023-06-10T04:35:14;93681.16;;;16.34;100.00
40384;BME280;26097;42.366;23.818;2023-06-10T04:38:15;93676.72;;;16.51;100.00
40384;BME280;26097;42.366;23.818;2023-06-10T04:41:15;93674.28;;;16.58;100.00
40384;BME280;26097;42.366;23.818;2023-06-10T04:44:16;93673.94;;;16.69;100.00
40384;BME280;26097;42.366;23.818;2023-06-10T04:47:16;93677.41;;;16.87;100.00
40384;BME280;26097;42.366;23.818;2023-06-10T04:50:17;93683.47;;;16.95;100.00
40384;BME280;26097;42.366;23.818;2023-06-10T04:53:17;93686.44;;;16.92;100.00
40384;BME280;26097;42.366;23.818;2023-06-10T04:56:18;93685.47;;;16.93;100.00
40384;BME280;26097;42.366;23.818;2023-06-10T04:59:18;93686.47;;;17.01;100.00
40384;BME280;26097;42.366;23.818;2023-06-10T05:02:19;93681.84;;;17.03;100.00
40384;BME280;26097;42.366;23.818;2023-06-10T05:05:19;93674.94;;;16.93;100.00
40384;BME280;26097;42.366;23.818;2023-06-10T05:08:20;93681.84;;;16.94;100.00
40384;BME280;26097;42.366;23.818;2023-06-10T05:11:20;93685.47;;;16.93;100.00
40384;BME280;26097;42.366;23.818;2023-06-10T05:14:20;93676.91;;;17.08;100.00
40384;BME280;26097;42.366;23.818;2023-06-10T05:17:21;93675.59;;;17.04;100.00
40384;BME280;26097;42.366;23.818;2023-06-10T05:20:21;93677.06;;;17.15;100.00
40384;BME280;26097;42.366;23.818;2023-06-10T05:23:22;93684.44;;;17.36;100.00
40384;BME280;26097;42.366;23.818;2023-06-10T05:26:22;93676.53;;;17.27;100.00
40384;BME280;26097;42.366;23.818;2023-06-10T05:29:22;93681.13;;;17.50;100.00
40384;BME280;26097;42.366;23.818;2023-06-10T05:32:23;93682.47;;;17.78;100.00
40384;BME280;26097;42.366;23.818;2023-06-10T05:35:23;93681.31;;;17.89;100.00
40384;BME280;26097;42.366;23.818;2023-06-10T05:38:24;93676.34;;;17.94;100.00
40384;BME280;26097;42.366;23.818;2023-06-10T05:41:24;93679.13;;;18.01;100.00
40384;BME280;26097;42.366;23.818;2023-06-10T05:44:25;93678.09;;;18.10;100.00
40384;BME280;26097;42.366;23.818;2023-06-10T05:47:26;93680.28;;;18.30;100.00
40384;BME280;26097;42.366;23.818;2023-06-10T05:50:26;93680.78;;;18.56;100.00
40384;BME280;26097;42.366;23.818;2023-06-10T05:53:26;93679.56;;;18.67;100.00
40384;BME280;26097;42.366;23.818;2023-06-10T05:56:27;93679.91;;;18.64;100.00
40384;BME280;26097;42.366;23.818;2023-06-10T05:59:27;93675.16;;;18.60;100.00
40384;BME280;26097;42.366;23.818;2023-06-10T06:02:28;93675.03;;;18.53;100.00
40384;BME280;26097;42.366;23.818;2023-06-10T06:05:28;93681.38;;;18.67;100.00
40384;BME280;26097;42.366;23.818;2023-06-10T06:08:34;93676.03;;;18.75;100.00
40384;BME280;26097;42.366;23.818;2023-06-10T06:11:35;93678.69;;;18.98;100.00
40384;BME280;26097;42.366;23.818;2023-06-10T06:14:38;93677.28;;;19.41;100.00
40384;BME280;26097;42.366;23.818;2023-06-10T06:17:40;93686.69;;;19.74;100.00
40384;BME280;26097;42.366;23.818;2023-06-10T06:20:40;93684.03;;;19.89;100.00
40384;BME280;26097;42.366;23.818;2023-06-10T06:23:40;93684.50;;;20.07;100.00
40384;BME280;26097;42.366;23.818;2023-06-10T06:26:41;93689.53;;;20.39;100.00
40384;BME280;26097;42.366;23.818;2023-06-10T06:29:41;93691.00;;;20.63;100.00
40384;BME280;26097;42.366;23.818;2023-06-10T06:32:42;93684.97;;;20.69;100.00
40384;BME280;26097;42.366;23.818;2023-06-10T06:35:42;93684.25;;;20.39;100.00
40384;BME280;26097;42.366;23.818;2023-06-10T06:38:43;93681.69;;;20.31;100.00
40384;BME280;26097;42.366;23.818;2023-06-10T06:41:43;93672.91;;;20.08;100.00
40384;BME280;26097;42.366;23.818;2023-06-10T06:44:44;93687.25;;;19.99;100.00
40384;BME280;26097;42.366;23.818;2023-06-10T06:47:45;93685.25;;;19.56;100.00
40384;BME280;26097;42.366;23.818;2023-06-10T06:50:46;93676.63;;;19.24;100.00
40384;BME280;26097;42.366;23.818;2023-06-10T06:53:46;93683.13;;;18.98;100.00
40384;BME280;26097;42.366;23.818;2023-06-10T06:56:47;93678.41;;;18.85;100.00
40384;BME280;26097;42.366;23.818;2023-06-10T06:59:48;93674.97;;;18.84;100.00
40384;BME280;26097;42.366;23.818;2023-06-10T07:02:48;93672.75;;;18.73;100.00
40384;BME280;26097;42.366;23.818;2023-06-10T07:05:49;93684.66;;;18.69;100.00
40384;BME280;26097;42.366;23.818;2023-06-10T07:08:49;93680.09;;;18.63;100.00
40384;BME280;26097;42.366;23.818;2023-06-10T07:11:50;93676.09;;;18.67;100.00
40384;BME280;26097;42.366;23.818;2023-06-10T07:14:51;93675.03;;;18.76;100.00
40384;BME280;26097;42.366;23.818;2023-06-10T07:17:51;93687.69;;;18.81;100.00
40384;BME280;26097;42.366;23.818;2023-06-10T07:20:51;93681.38;;;18.90;100.00
40384;BME280;26097;42.366;23.818;2023-06-10T07:23:52;93684.06;;;18.82;100.00
40384;BME280;26097;42.366;23.818;2023-06-10T07:26:54;93686.06;;;18.80;100.00
40384;BME280;26097;42.366;23.818;2023-06-10T07:29:55;93679.50;;;18.76;100.00
40384;BME280;26097;42.366;23.818;2023-06-10T07:32:55;93682.78;;;18.78;100.00
40384;BME280;26097;42.366;23.818;2023-06-10T07:35:56;93683.09;;;18.60;100.00
40384;BME280;26097;42.366;23.818;2023-06-10T07:38:56;93684.84;;;18.67;100.00
40384;BME280;26097;42.366;23.818;2023-06-10T07:41:57;93682.25;;;18.59;100.00
40384;BME280;26097;42.366;23.818;2023-06-10T07:44:57;93685.19;;;18.64;100.00
40384;BME280;26097;42.366;23.818;2023-06-10T07:47:57;93691.28;;;18.88;100.00
40384;BME280;26097;42.366;23.818;2023-06-10T07:50:58;93692.53;;;19.01;100.00
40384;BME280;26097;42.366;23.818;2023-06-10T07:53:58;93698.56;;;19.09;100.00
40384;BME280;26097;42.366;23.818;2023-06-10T07:56:59;93699.31;;;19.18;100.00
40384;BME280;26097;42.366;23.818;2023-06-10T07:59:59;93704.59;;;19.18;100.00
40384;BME280;26097;42.366;23.818;2023-06-10T08:03:00;93697.56;;;19.25;100.00
40384;BME280;26097;42.366;23.818;2023-06-10T08:06:00;93706.63;;;19.31;100.00
40384;BME280;26097;42.366;23.818;2023-06-10T08:09:01;93705.53;;;19.40;100.00
40384;BME280;26097;42.366;23.818;2023-06-10T08:12:02;93708.47;;;19.61;100.00
40384;BME280;26097;42.366;23.818;2023-06-10T08:15:03;93706.84;;;19.90;100.00
40384;BME280;26097;42.366;23.818;2023-06-10T08:18:04;93713.69;;;19.99;100.00
40384;BME280;26097;42.366;23.818;2023-06-10T08:21:04;93711.28;;;19.89;100.00
40384;BME280;26097;42.366;23.818;2023-06-10T08:24:08;93710.78;;;19.79;100.00
40384;BME280;26097;42.366;23.818;2023-06-10T08:27:09;93709.41;;;19.68;100.00
40384;BME280;26097;42.366;23.818;2023-06-10T08:30:11;93719.72;;;19.78;100.00
40384;BME280;26097;42.366;23.818;2023-06-10T08:33:13;93722.88;;;19.73;100.00
40384;BME280;26097;42.366;23.818;2023-06-10T08:36:13;93723.34;;;19.77;100.00
40384;BME280;26097;42.366;23.818;2023-06-10T08:39:14;93722.06;;;19.73;100.00
40384;BME280;26097;42.366;23.818;2023-06-10T08:45:37;93714.31;;;19.71;100.00
40384;BME280;26097;42.366;23.818;2023-06-10T08:48:42;93710.28;;;19.90;100.00
40384;BME280;26097;42.366;23.818;2023-06-10T08:51:45;93708.59;;;19.97;100.00
40384;BME280;26097;42.366;23.818;2023-06-10T08:54:57;93706.47;;;20.08;100.00
40384;BME280;26097;42.366;23.818;2023-06-10T08:58:00;93699.69;;;20.35;100.00
40384;BME280;26097;42.366;23.818;2023-06-10T09:01:01;93696.19;;;20.50;100.00
40384;BME280;26097;42.366;23.818;2023-06-10T09:04:02;93693.44;;;20.80;100.00
40384;BME280;26097;42.366;23.818;2023-06-10T09:07:03;93693.00;;;20.98;100.00
40384;BME280;26097;42.366;23.818;2023-06-10T09:10:05;93682.09;;;20.86;100.00
40384;BME280;26097;42.366;23.818;2023-06-10T09:13:07;93671.84;;;20.61;100.00
40384;BME280;26097;42.366;23.818;2023-06-10T09:16:07;93675.00;;;20.50;100.00
40384;BME280;26097;42.366;23.818;2023-06-10T09:19:08;93671.59;;;20.56;100.00
40384;BME280;26097;42.366;23.818;2023-06-10T09:22:08;93670.09;;;20.47;100.00
40384;BME280;26097;42.366;23.818;2023-06-10T09:25:11;93674.59;;;21.18;100.00
40384;BME280;26097;42.366;23.818;2023-06-10T09:28:15;93671.59;;;21.57;100.00
40384;BME280;26097;42.366;23.818;2023-06-10T09:31:16;93667.41;;;22.04;100.00
40384;BME280;26097;42.366;23.818;2023-06-10T09:34:25;93665.81;;;22.17;100.00
40384;BME280;26097;42.366;23.818;2023-06-10T09:37:25;93665.78;;;22.79;100.00
40384;BME280;26097;42.366;23.818;2023-06-10T09:40:26;93659.28;;;23.35;100.00
40384;BME280;26097;42.366;23.818;2023-06-10T09:43:45;93649.25;;;23.51;100.00
40384;BME280;26097;42.366;23.818;2023-06-10T09:46:48;93656.00;;;23.40;100.00
40384;BME280;26097;42.366;23.818;2023-06-10T09:49:50;93643.09;;;23.57;100.00
40384;BME280;26097;42.366;23.818;2023-06-10T09:52:50;93645.47;;;23.86;100.00
40384;BME280;26097;42.366;23.818;2023-06-10T09:55:52;93644.97;;;24.16;100.00
40384;BME280;26097;42.366;23.818;2023-06-10T09:58:53;93640.78;;;24.33;100.00
40384;BME280;26097;42.366;23.818;2023-06-10T10:01:56;93635.81;;;24.44;100.00
40384;BME280;26097;42.366;23.818;2023-06-10T10:05:03;93625.13;;;24.12;100.00
40384;BME280;26097;42.366;23.818;2023-06-10T10:08:04;93629.34;;;24.26;100.00
40384;BME280;26097;42.366;23.818;2023-06-10T10:11:05;93632.19;;;24.31;100.00
40384;BME280;26097;42.366;23.818;2023-06-10T10:14:06;93624.47;;;24.55;100.00
40384;BME280;26097;42.366;23.818;2023-06-10T10:17:10;93629.97;;;24.92;100.00
40384;BME280;26097;42.366;23.818;2023-06-10T10:20:16;93613.63;;;24.89;100.00
40384;BME280;26097;42.366;23.818;2023-06-10T10:23:23;93619.00;;;24.82;100.00
40384;BME280;26097;42.366;23.818;2023-06-10T10:26:26;93615.41;;;25.20;100.00
40384;BME280;26097;42.366;23.818;2023-06-10T10:29:34;93625.28;;;25.38;100.00
40384;BME280;26097;42.366;23.818;2023-06-10T10:32:45;93623.19;;;25.22;100.00
40384;BME280;26097;42.366;23.818;2023-06-10T10:35:51;93618.97;;;25.33;100.00
40384;BME280;26097;42.366;23.818;2023-06-10T10:38:54;93614.53;;;25.52;100.00
40384;BME280;26097;42.366;23.818;2023-06-10T10:41:55;93605.69;;;25.89;100.00
40384;BME280;26097;42.366;23.818;2023-06-10T10:44:57;93607.78;;;25.87;100.00
40384;BME280;26097;42.366;23.818;2023-06-10T10:48:07;93595.47;;;25.86;100.00
40384;BME280;26097;42.366;23.818;2023-06-10T10:51:10;93594.56;;;26.10;100.00
40384;BME280;26097;42.366;23.818;2023-06-10T10:54:14;93596.50;;;26.22;100.00
40384;BME280;26097;42.366;23.818;2023-06-10T11:00:27;93591.75;;;26.24;90.43
40384;BME280;26097;42.366;23.818;2023-06-10T11:03:29;93582.97;;;26.35;89.88
40384;BME280;26097;42.366;23.818;2023-06-10T11:06:32;93577.72;;;26.29;85.91
40384;BME280;26097;42.366;23.818;2023-06-10T11:09:32;93567.19;;;26.46;89.50
40384;BME280;26097;42.366;23.818;2023-06-10T11:15:47;93564.31;;;26.17;88.53
40384;BME280;26097;42.366;23.818;2023-06-10T11:18:53;93566.19;;;26.71;87.00
40384;BME280;26097;42.366;23.818;2023-06-10T11:22:17;93563.88;;;26.20;97.48
40384;BME280;26097;42.366;23.818;2023-06-10T11:25:38;93559.94;;;24.85;100.00
40384;BME280;26097;42.366;23.818;2023-06-10T11:28:39;93550.44;;;24.38;100.00
40384;BME280;26097;42.366;23.818;2023-06-10T11:31:45;93560.84;;;24.01;100.00
40384;BME280;26097;42.366;23.818;2023-06-10T11:34:52;93550.41;;;23.54;100.00
40384;BME280;26097;42.366;23.818;2023-06-10T11:37:54;93545.28;;;24.05;100.00
40384;BME280;26097;42.366;23.818;2023-06-10T11:40:55;93550.22;;;24.65;100.00
40384;BME280;26097;42.366;23.818;2023-06-10T11:43:57;93558.22;;;25.35;88.63
40384;BME280;26097;42.366;23.818;2023-06-10T11:47:01;93546.59;;;25.10;97.50
40384;BME280;26097;42.366;23.818;2023-06-10T11:50:04;93541.75;;;25.01;100.00
40384;BME280;26097;42.366;23.818;2023-06-10T11:53:04;93541.00;;;26.24;96.20
40384;BME280;26097;42.366;23.818;2023-06-10T11:56:05;93540.00;;;27.27;86.17
40384;BME280;26097;42.366;23.818;2023-06-10T11:59:06;93548.16;;;26.54;91.62
40384;BME280;26097;42.366;23.818;2023-06-10T12:02:15;93543.28;;;24.90;96.49
40384;BME280;26097;42.366;23.818;2023-06-10T12:05:16;93552.81;;;24.15;100.00
40384;BME280;26097;42.366;23.818;2023-06-10T12:08:19;93543.31;;;23.87;100.00
40384;BME280;26097;42.366;23.818;2023-06-10T12:11:19;93538.94;;;23.53;100.00
40384;BME280;26097;42.366;23.818;2023-06-10T12:14:52;93540.22;;;23.24;100.00
40384;BME280;26097;42.366;23.818;2023-06-10T12:17:59;93542.72;;;22.99;100.00
40384;BME280;26097;42.366;23.818;2023-06-10T12:20:59;93532.50;;;22.89;100.00
40384;BME280;26097;42.366;23.818;2023-06-10T12:24:08;93529.66;;;22.90;100.00
40384;BME280;26097;42.366;23.818;2023-06-10T12:27:12;93531.22;;;23.18;100.00
40384;BME280;26097;42.366;23.818;2023-06-10T12:30:19;93531.06;;;24.82;100.00
40384;BME280;26097;42.366;23.818;2023-06-10T12:33:20;93537.78;;;25.29;100.00
40384;BME280;26097;42.366;23.818;2023-06-10T12:36:20;93531.66;;;25.47;100.00
40384;BME280;26097;42.366;23.818;2023-06-10T12:39:21;93529.38;;;26.73;98.56
40384;BME280;26097;42.366;23.818;2023-06-10T12:42:25;93525.22;;;27.01;92.65
40384;BME280;26097;42.366;23.818;2023-06-10T12:48:31;93517.22;;;26.34;95.57
40384;BME280;26097;42.366;23.818;2023-06-10T12:51:32;93514.59;;;26.16;93.56
40384;BME280;26097;42.366;23.818;2023-06-10T12:54:34;93511.88;;;25.36;98.55
40384;BME280;26097;42.366;23.818;2023-06-10T12:57:35;93519.09;;;25.10;100.00
40384;BME280;26097;42.366;23.818;2023-06-10T13:00:35;93513.09;;;25.15;100.00
40384;BME280;26097;42.366;23.818;2023-06-10T13:03:37;93508.75;;;25.39;99.10
40384;BME280;26097;42.366;23.818;2023-06-10T13:06:39;93512.88;;;25.72;97.88
40384;BME280;26097;42.366;23.818;2023-06-10T13:09:39;93510.00;;;26.04;96.92
40384;BME280;26097;42.366;23.818;2023-06-10T13:12:40;93506.16;;;25.70;98.98
40384;BME280;26097;42.366;23.818;2023-06-10T13:15:41;93505.03;;;25.21;96.04
40384;BME280;26097;42.366;23.818;2023-06-10T13:18:41;93512.00;;;24.78;98.99
40384;BME280;26097;42.366;23.818;2023-06-10T13:21:42;93511.31;;;24.32;100.00
40384;BME280;26097;42.366;23.818;2023-06-10T13:24:43;93512.19;;;23.87;100.00
40384;BME280;26097;42.366;23.818;2023-06-10T13:27:43;93509.97;;;23.32;100.00
40384;BME280;26097;42.366;23.818;2023-06-10T13:30:44;93521.06;;;22.95;100.00
40384;BME280;26097;42.366;23.818;2023-06-10T13:33:44;93509.66;;;22.40;100.00
40384;BME280;26097;42.366;23.818;2023-06-10T13:36:45;93510.03;;;22.10;100.00
40384;BME280;26097;42.366;23.818;2023-06-10T13:39:45;93501.03;;;21.91;100.00
40384;BME280;26097;42.366;23.818;2023-06-10T13:42:50;93508.66;;;21.59;100.00
40384;BME280;26097;42.366;23.818;2023-06-10T13:45:52;93505.41;;;21.64;100.00
40384;BME280;26097;42.366;23.818;2023-06-10T13:48:53;93501.91;;;21.63;100.00
40384;BME280;26097;42.366;23.818;2023-06-10T13:51:53;93503.00;;;21.69;100.00
40384;BME280;26097;42.366;23.818;2023-06-10T13:54:54;93509.53;;;21.73;100.00
40384;BME280;26097;42.366;23.818;2023-06-10T13:57:54;93505.16;;;21.59;100.00
40384;BME280;26097;42.366;23.818;2023-06-10T14:00:55;93504.69;;;21.83;100.00
40384;BME280;26097;42.366;23.818;2023-06-10T14:03:55;93506.31;;;21.98;100.00
40384;BME280;26097;42.366;23.818;2023-06-10T14:06:56;93497.34;;;21.99;100.00
40384;BME280;26097;42.366;23.818;2023-06-10T14:09:57;93499.78;;;21.94;100.00
40384;BME280;26097;42.366;23.818;2023-06-10T14:12:58;93501.41;;;21.88;100.00
40384;BME280;26097;42.366;23.818;2023-06-10T14:16:00;93504.69;;;21.83;100.00
40384;BME280;26097;42.366;23.818;2023-06-10T14:19:02;93502.81;;;21.84;100.00
40384;BME280;26097;42.366;23.818;2023-06-10T14:22:03;93506.72;;;21.81;100.00
40384;BME280;26097;42.366;23.818;2023-06-10T14:25:04;93507.44;;;21.62;100.00
40384;BME280;26097;42.366;23.818;2023-06-10T14:28:04;93510.66;;;21.50;100.00
40384;BME280;26097;42.366;23.818;2023-06-10T14:31:05;93515.06;;;21.30;100.00
40384;BME280;26097;42.366;23.818;2023-06-10T14:34:06;93518.94;;;21.34;100.00
40384;BME280;26097;42.366;23.818;2023-06-10T14:37:08;93515.13;;;21.50;100.00
40384;BME280;26097;42.366;23.818;2023-06-10T14:40:08;93515.16;;;21.57;100.00
40384;BME280;26097;42.366;23.818;2023-06-10T14:43:09;93520.59;;;21.42;100.00
40384;BME280;26097;42.366;23.818;2023-06-10T14:46:10;93524.38;;;21.19;100.00
40384;BME280;26097;42.366;23.818;2023-06-10T14:49:10;93523.53;;;21.18;100.00
40384;BME280;26097;42.366;23.818;2023-06-10T14:52:11;93522.78;;;21.24;100.00
40384;BME280;26097;42.366;23.818;2023-06-10T14:55:11;93522.44;;;21.34;100.00
40384;BME280;26097;42.366;23.818;2023-06-10T14:58:11;93524.81;;;21.22;100.00
40384;BME280;26097;42.366;23.818;2023-06-10T15:01:12;93521.28;;;20.80;100.00
40384;BME280;26097;42.366;23.818;2023-06-10T15:04:12;93523.47;;;20.48;100.00
40384;BME280;26097;42.366;23.818;2023-06-10T15:07:13;93521.50;;;20.28;100.00
40384;BME280;26097;42.366;23.818;2023-06-10T15:10:15;93522.75;;;20.10;100.00
40384;BME280;26097;42.366;23.818;2023-06-10T15:13:16;93519.88;;;20.05;100.00
40384;BME280;26097;42.366;23.818;2023-06-10T15:16:16;93527.00;;;19.90;100.00
40384;BME280;26097;42.366;23.818;2023-06-10T15:19:17;93524.34;;;19.68;100.00
40384;BME280;26097;42.366;23.818;2023-06-10T15:22:17;93519.94;;;19.75;100.00
40384;BME280;26097;42.366;23.818;2023-06-10T15:25:18;93526.19;;;19.52;100.00
40384;BME280;26097;42.366;23.818;2023-06-10T15:28:18;93527.28;;;18.83;100.00
40384;BME280;26097;42.366;23.818;2023-06-10T15:31:19;93529.94;;;18.45;100.00
40384;BME280;26097;42.366;23.818;2023-06-10T15:34:19;93528.94;;;18.07;100.00
40384;BME280;26097;42.366;23.818;2023-06-10T15:37:20;93537.47;;;17.86;100.00
40384;BME280;26097;42.366;23.818;2023-06-10T15:40:21;93533.81;;;17.64;100.00
40384;BME280;26097;42.366;23.818;2023-06-10T15:43:21;93538.22;;;17.40;100.00
40384;BME280;26097;42.366;23.818;2023-06-10T15:46:22;93548.75;;;17.40;100.00
40384;BME280;26097;42.366;23.818;2023-06-10T15:49:22;93543.09;;;17.11;100.00
40384;BME280;26097;42.366;23.818;2023-06-10T15:52:23;93542.50;;;17.01;100.00
40384;BME280;26097;42.366;23.818;2023-06-10T15:55:24;93539.03;;;16.92;100.00
40384;BME280;26097;42.366;23.818;2023-06-10T15:58:26;93539.38;;;16.81;100.00
40384;BME280;26097;42.366;23.818;2023-06-10T16:01:26;93545.47;;;16.81;100.00